createdAt,value
2018-12-05T00:00:43.098Z,96850.69
2018-12-05T00:03:13.111Z,96854.66
2018-12-05T00:05:43.029Z,96857.80
2018-12-05T00:08:14.135Z,96863.67
2018-12-05T00:32:33.913Z,96865.57
2018-12-05T00:39:17.886Z,96860.45
2018-12-05T00:41:47.786Z,96853.84
2018-12-05T00:44:17.811Z,96864.00
2018-12-05T00:46:47.785Z,96853.86
2018-12-05T00:49:17.733Z,96861.17
2018-12-05T00:51:47.839Z,96858.58
2018-12-05T00:54:17.734Z,96870.31
2018-12-05T00:56:47.644Z,96874.38
2018-12-05T00:59:17.756Z,96881.92
2018-12-05T01:01:47.702Z,96881.94
2018-12-05T01:04:17.982Z,96884.63
2018-12-05T01:06:47.762Z,96874.16
2018-12-05T01:09:17.784Z,96872.58
2018-12-05T01:11:47.607Z,96881.44
2018-12-05T01:14:18.099Z,96887.41
2018-12-05T01:16:47.911Z,96873.33
2018-12-05T01:19:17.754Z,96866.37
2018-12-05T01:21:47.640Z,96862.31
2018-12-05T01:24:17.998Z,96861.72
2018-12-05T01:26:48.232Z,96866.22
2018-12-05T01:29:18.028Z,96863.30
2018-12-05T01:31:47.786Z,96860.71
2018-12-05T01:34:17.698Z,96867.47
2018-12-05T01:36:47.436Z,96862.73
2018-12-05T01:39:17.212Z,96873.76
2018-12-05T01:41:47.031Z,96874.91
2018-12-05T01:44:16.769Z,96875.00
2018-12-05T01:46:46.531Z,96877.26
2018-12-05T01:49:16.765Z,96875.80
2018-12-05T01:51:47.017Z,96872.23
2018-12-05T01:54:16.839Z,96867.51
2018-12-05T01:56:47.706Z,96859.39
2018-12-05T01:59:18.189Z,96858.45
2018-12-05T02:01:47.921Z,96856.42
2018-12-05T02:04:17.683Z,96860.45
2018-12-05T02:06:48.453Z,96860.02
2018-12-05T02:09:18.250Z,96852.92
2018-12-05T02:11:48.053Z,96851.33
2018-12-05T02:14:17.836Z,96850.42
2018-12-05T02:16:48.029Z,96847.71
2018-12-05T02:19:18.586Z,96847.39
2018-12-05T02:21:48.782Z,96841.80
2018-12-05T02:24:19.005Z,96832.02
2018-12-05T02:26:48.919Z,96822.67
2018-12-05T02:29:19.159Z,96820.09
2018-12-05T02:31:49.056Z,96831.84
2018-12-05T02:34:18.835Z,96832.19
2018-12-05T02:36:48.782Z,96846.19
2018-12-05T02:39:19.600Z,96850.57
2018-12-05T02:41:50.135Z,96844.23
2018-12-05T02:44:19.984Z,96840.29
2018-12-05T02:46:49.791Z,96847.05
2018-12-05T02:49:19.578Z,96849.29
2018-12-05T02:51:49.362Z,96857.19
2018-12-05T02:54:19.119Z,96857.52
2018-12-05T02:56:48.909Z,96858.88
2018-12-05T02:59:18.689Z,96860.23
2018-12-05T03:01:48.527Z,96864.02
2018-12-05T03:04:18.638Z,96864.93
2018-12-05T03:06:48.400Z,96859.84
2018-12-05T03:09:18.148Z,96863.23
2018-12-05T03:11:47.970Z,96867.52
2018-12-05T03:14:18.026Z,96867.08
2018-12-05T03:16:48.324Z,96858.86
2018-12-05T03:19:18.759Z,96859.08
2018-12-05T03:21:49.555Z,96855.02
2018-12-05T03:24:19.626Z,96856.16
2018-12-05T03:26:49.404Z,96859.77
2018-12-05T03:29:19.438Z,96865.38
2018-12-05T03:31:49.600Z,96860.77
2018-12-05T03:34:19.337Z,96862.56
2018-12-05T03:36:49.144Z,96853.66
2018-12-05T03:39:18.967Z,96860.90
2018-12-05T03:41:48.767Z,96853.23
2018-12-05T03:44:18.570Z,96846.48
2018-12-05T03:46:48.346Z,96839.27
2018-12-05T03:49:18.127Z,96844.66
2018-12-05T03:51:48.165Z,96841.84
2018-12-05T03:54:17.920Z,96840.52
2018-12-05T03:56:48.375Z,96834.67
2018-12-05T03:59:18.183Z,96823.17
2018-12-05T04:01:48.334Z,96819.92
2018-12-05T04:04:19.037Z,96816.87
2018-12-05T04:06:48.843Z,96818.54
2018-12-05T04:09:18.606Z,96821.40
2018-12-05T04:11:48.414Z,96822.37
2018-12-05T04:14:18.666Z,96823.28
2018-12-05T04:16:48.741Z,96834.44
2018-12-05T04:19:18.463Z,96837.81
2018-12-05T04:21:48.334Z,96838.83
2018-12-05T04:24:18.330Z,96837.03
2018-12-05T04:26:48.594Z,96843.66
2018-12-05T04:29:18.385Z,96845.81
2018-12-05T04:31:48.174Z,96845.71
2018-12-05T04:34:17.908Z,96845.02
2018-12-05T04:36:48.377Z,96858.64
2018-12-05T04:39:18.405Z,96864.16
2018-12-05T04:41:48.263Z,96872.73
2018-12-05T04:44:18.060Z,96879.93
2018-12-05T04:46:48.431Z,96878.81
2018-12-05T04:49:18.246Z,96881.74
2018-12-05T04:51:48.056Z,96880.97
2018-12-05T04:54:17.959Z,96878.93
2018-12-05T04:56:47.725Z,96876.80
2018-12-05T04:59:17.467Z,96879.17
2018-12-05T05:01:47.465Z,96882.66
2018-12-05T05:04:17.241Z,96882.66
2018-12-05T05:06:47.113Z,96884.33
2018-12-05T05:09:16.884Z,96882.41
2018-12-05T05:11:46.637Z,96885.91
2018-12-05T05:14:16.365Z,96881.17
2018-12-05T05:16:46.177Z,96881.06
2018-12-05T05:19:15.928Z,96879.05
2018-12-05T05:21:46.054Z,96872.63
2018-12-05T05:24:15.843Z,96872.28
2018-12-05T05:26:45.865Z,96871.71
2018-12-05T05:29:15.896Z,96861.69
2018-12-05T05:31:45.723Z,96864.16
2018-12-05T05:34:15.499Z,96866.20
2018-12-05T05:36:45.229Z,96865.73
2018-12-05T05:39:15.035Z,96873.05
2018-12-05T05:41:45.037Z,96868.80
2018-12-05T05:44:15.125Z,96863.62
2018-12-05T05:46:44.893Z,96864.08
2018-12-05T05:49:14.704Z,96859.56
2018-12-05T05:51:44.497Z,96861.28
2018-12-05T05:54:14.261Z,96860.39
2018-12-05T05:56:45.425Z,96863.64
2018-12-05T05:59:15.489Z,96857.42
2018-12-05T06:01:45.256Z,96856.62
2018-12-05T06:04:15.028Z,96857.34
2018-12-05T06:06:45.712Z,96854.08
2018-12-05T06:09:15.482Z,96848.98
2018-12-05T06:11:45.312Z,96854.60
2018-12-05T06:14:15.099Z,96846.72
2018-12-05T06:16:45.128Z,96833.62
2018-12-05T06:19:15.304Z,96847.42
2018-12-05T06:21:45.125Z,96849.02
2018-12-05T06:24:15.292Z,96841.55
2018-12-05T06:26:45.124Z,96831.63
2018-12-05T06:29:14.899Z,96845.92
2018-12-05T06:31:44.652Z,96850.77
2018-12-05T06:34:14.496Z,96847.02
2018-12-05T06:36:44.276Z,96838.19
2018-12-05T06:39:14.762Z,96840.13
2018-12-05T06:41:44.914Z,96845.59
2018-12-05T06:44:14.699Z,96847.47
2018-12-05T06:46:44.516Z,96846.89
2018-12-05T06:49:14.927Z,96842.84
2018-12-05T06:51:44.683Z,96849.81
2018-12-05T06:54:14.510Z,96856.62
2018-12-05T06:56:44.294Z,96857.93
2018-12-05T06:59:14.121Z,96858.28
2018-12-05T07:01:43.892Z,96865.73
2018-12-05T07:04:13.698Z,96866.42
2018-12-05T07:06:43.969Z,96868.89
2018-12-05T07:09:13.772Z,96861.55
2018-12-05T07:11:43.576Z,96869.98
2018-12-05T07:14:13.346Z,96874.61
2018-12-05T07:16:43.136Z,96874.22
2018-12-05T07:19:12.866Z,96871.59
2018-12-05T07:21:42.818Z,96870.05
2018-12-05T07:24:12.606Z,96875.22
2018-12-05T07:26:42.436Z,96875.72
2018-12-05T07:29:12.244Z,96876.07
2018-12-05T07:31:42.058Z,96874.48
2018-12-05T07:34:12.150Z,96883.84
2018-12-05T07:39:22.316Z,96873.78
2018-12-05T07:41:52.086Z,96878.28
2018-12-05T07:44:21.921Z,96879.20
2018-12-05T07:46:51.725Z,96880.42
2018-12-05T07:49:21.482Z,96884.92
2018-12-05T07:51:51.268Z,96886.48
2018-12-05T07:54:21.088Z,96892.89
2018-12-05T07:56:50.832Z,96891.10
2018-12-05T07:59:20.602Z,96893.25
2018-12-05T08:01:50.404Z,96894.29
2018-12-05T08:04:20.396Z,96889.81
2018-12-05T08:06:50.196Z,96896.45
2018-12-05T08:09:20.029Z,96895.69
2018-12-05T08:11:49.845Z,96893.09
2018-12-05T08:14:19.865Z,96894.09
2018-12-05T08:16:49.692Z,96895.45
2018-12-05T08:19:20.480Z,96903.67
2018-12-05T08:21:50.300Z,96904.14
2018-12-05T08:24:20.046Z,96908.52
2018-12-05T08:26:49.869Z,96907.28
2018-12-05T08:29:19.938Z,96912.36
2018-12-05T08:31:50.054Z,96909.64
2018-12-05T08:34:20.094Z,96910.51
2018-12-05T08:36:49.886Z,96908.70
2018-12-05T08:40:49.335Z,96909.82
2018-12-05T08:43:19.125Z,96903.00
2018-12-05T08:45:49.197Z,96896.36
2018-12-05T08:48:18.999Z,96899.97
2018-12-05T08:50:48.788Z,96908.73
2018-12-05T08:53:18.577Z,96909.77
2018-12-05T08:55:48.403Z,96906.78
2018-12-05T08:58:18.823Z,96908.30
2018-12-05T09:00:48.553Z,96899.75
2018-12-05T09:03:18.281Z,96895.22
2018-12-05T09:05:48.033Z,96883.61
2018-12-05T09:08:17.827Z,96885.99
2018-12-05T09:10:47.590Z,96887.33
2018-12-05T09:13:17.351Z,96893.08
2018-12-05T09:15:47.154Z,96888.02
2018-12-05T09:18:16.904Z,96882.81
2018-12-05T09:20:46.788Z,96880.43
2018-12-05T09:23:16.572Z,96882.93
2018-12-05T09:25:46.340Z,96881.23
2018-12-05T09:28:16.100Z,96877.25
2018-12-05T09:30:45.862Z,96876.87
2018-12-05T09:33:15.610Z,96881.80
2018-12-05T09:35:45.638Z,96875.87
2018-12-05T09:38:15.704Z,96877.17
2018-12-05T09:40:45.513Z,96874.39
2018-12-05T09:43:15.258Z,96873.67
2018-12-05T09:45:45.032Z,96861.79
2018-12-05T09:48:14.827Z,96868.64
2018-12-05T09:50:44.838Z,96868.88
2018-12-05T09:53:14.628Z,96870.80
2018-12-05T09:55:44.398Z,96865.98
2018-12-05T09:58:14.215Z,96862.95
2018-12-05T10:00:44.000Z,96862.48
2018-12-05T10:03:13.836Z,96863.70
2018-12-05T10:05:43.906Z,96863.04
2018-12-05T10:08:13.974Z,96862.72
2018-12-05T10:10:44.133Z,96861.13
2018-12-05T10:13:13.977Z,96857.30
2018-12-05T10:15:44.034Z,96848.27
2018-12-05T10:18:13.848Z,96844.49
2018-12-05T10:20:43.628Z,96845.48
2018-12-05T10:23:13.470Z,96846.83
2018-12-05T10:25:43.460Z,96843.69
2018-12-05T10:28:13.256Z,96848.17
2018-12-05T10:30:43.038Z,96843.11
2018-12-05T10:33:12.784Z,96838.56
2018-12-05T10:35:42.624Z,96836.42
2018-12-05T10:38:12.676Z,96822.34
2018-12-05T10:40:42.480Z,96814.16
2018-12-05T10:43:12.530Z,96817.95
2018-12-05T10:45:42.444Z,96806.70
2018-12-05T10:48:12.174Z,96809.16
2018-12-05T10:50:41.964Z,96807.30
2018-12-05T10:53:12.286Z,96810.07
2018-12-05T10:55:42.299Z,96803.39
2018-12-05T10:58:12.449Z,96794.97
2018-12-05T11:00:47.827Z,96800.35
2018-12-05T11:03:23.999Z,96792.83
2018-12-05T11:05:59.126Z,96796.07
2018-12-05T11:08:34.454Z,96794.59
2018-12-05T11:11:10.036Z,96782.66
2018-12-05T11:13:44.924Z,96783.80
2018-12-05T11:16:20.267Z,96780.90
2018-12-05T11:18:55.028Z,96782.16
2018-12-05T11:21:30.416Z,96781.60
2018-12-05T11:24:12.113Z,96770.23
2018-12-05T11:26:41.907Z,96769.80
2018-12-05T11:29:12.221Z,96761.72
2018-12-05T11:31:42.355Z,96756.11
2018-12-05T11:34:12.641Z,96755.32
2018-12-05T11:36:42.427Z,96762.89
2018-12-05T11:39:12.450Z,96758.52
2018-12-05T11:41:42.192Z,96759.38
2018-12-05T11:44:11.934Z,96746.33
2018-12-05T11:46:41.742Z,96755.91
2018-12-05T11:49:11.801Z,96750.36
2018-12-05T11:51:41.564Z,96759.05
2018-12-05T11:54:11.364Z,96765.69
2018-12-05T11:56:41.426Z,96763.25
2018-12-05T11:59:11.168Z,96752.80
2018-12-05T12:01:40.964Z,96750.86
2018-12-05T12:04:10.800Z,96742.92
2018-12-05T12:06:40.530Z,96733.90
2018-12-05T12:09:11.850Z,96732.34
2018-12-05T12:11:42.086Z,96723.02
2018-12-05T12:14:11.856Z,96725.34
2018-12-05T12:16:41.637Z,96720.84
2018-12-05T12:19:11.775Z,96713.56
2018-12-05T12:21:43.532Z,96713.57
2018-12-05T12:24:13.376Z,96708.16
2018-12-05T12:26:43.174Z,96713.31
2018-12-05T12:29:12.992Z,96710.33
2018-12-05T12:31:42.736Z,96704.65
2018-12-05T12:34:13.350Z,96710.40
2018-12-05T12:36:43.484Z,96715.89
2018-12-05T12:39:13.246Z,96721.93
2018-12-05T12:41:43.039Z,96713.50
2018-12-05T12:44:12.834Z,96706.79
2018-12-05T12:46:42.664Z,96691.80
2018-12-05T12:49:12.841Z,96687.64
2018-12-05T12:51:42.626Z,96689.88
2018-12-05T12:54:12.692Z,96691.30
2018-12-05T12:56:42.474Z,96687.88
2018-12-05T12:59:12.844Z,96691.70
2018-12-05T13:01:42.726Z,96690.64
2018-12-05T13:04:12.913Z,96685.22
2018-12-05T13:06:42.973Z,96684.62
2018-12-05T13:09:13.501Z,96675.12
2018-12-05T13:11:43.300Z,96680.19
2018-12-05T13:14:13.055Z,96677.97
2018-12-05T13:16:42.847Z,96672.73
2018-12-05T13:19:13.811Z,96671.15
2018-12-05T13:21:44.336Z,96674.90
2018-12-05T13:24:14.287Z,96660.26
2018-12-05T13:26:44.407Z,96661.52
2018-12-05T13:29:14.186Z,96648.81
2018-12-05T13:31:44.211Z,96648.94
2018-12-05T13:34:14.244Z,96645.35
2018-12-05T13:36:44.017Z,96639.03
2018-12-05T13:39:13.781Z,96633.75
2018-12-05T13:41:43.548Z,96629.88
2018-12-05T13:44:13.646Z,96628.05
2018-12-05T13:46:43.447Z,96625.19
2018-12-05T13:49:13.192Z,96627.16
2018-12-05T13:51:43.819Z,96621.64
2018-12-05T13:54:13.926Z,96619.35
2018-12-05T13:56:44.652Z,96617.01
2018-12-05T13:59:14.457Z,96614.48
2018-12-05T14:01:44.298Z,96618.70
2018-12-05T14:04:14.105Z,96609.78
2018-12-05T14:06:43.860Z,96605.25
2018-12-05T14:09:14.186Z,96608.27
2018-12-05T14:11:44.199Z,96605.84
2018-12-05T14:14:13.996Z,96607.00
2018-12-05T14:16:44.214Z,96619.58
2018-12-05T14:19:14.001Z,96612.99
2018-12-05T14:21:43.765Z,96610.34
2018-12-05T14:24:13.654Z,96612.77
2018-12-05T14:26:43.485Z,96617.45
2018-12-05T14:29:13.252Z,96617.07
2018-12-05T14:31:43.056Z,96614.54
2018-12-05T14:34:12.796Z,96611.41
2018-12-05T14:36:42.572Z,96609.69
2018-12-05T14:39:12.362Z,96597.23
2018-12-05T14:41:42.228Z,96594.35
2018-12-05T14:44:12.473Z,96592.80
2018-12-05T14:46:43.180Z,96588.50
2018-12-05T14:49:13.046Z,96586.78
2018-12-05T14:51:43.089Z,96583.64
2018-12-05T14:54:12.923Z,96577.38
2018-12-05T14:56:43.517Z,96565.17
2018-12-05T14:59:14.299Z,96554.39
2018-12-05T15:01:44.244Z,96556.31
2018-12-05T15:04:14.089Z,96550.46
2018-12-05T15:06:44.195Z,96557.44
2018-12-05T15:09:14.297Z,96555.04
2018-12-05T15:11:44.429Z,96550.89
2018-12-05T15:14:14.202Z,96551.34
2018-12-05T15:16:44.527Z,96557.55
2018-12-05T15:19:14.913Z,96564.17
2018-12-05T15:21:44.711Z,96555.69
2018-12-05T15:24:14.625Z,96550.42
2018-12-05T15:26:44.511Z,96546.14
2018-12-05T15:29:14.357Z,96541.92
2018-12-05T15:31:44.271Z,96538.85
2018-12-05T15:34:14.410Z,96535.41
2018-12-05T15:36:44.220Z,96526.09
2018-12-05T15:39:14.682Z,96530.84
2018-12-05T15:41:44.440Z,96530.33
2018-12-05T15:44:14.342Z,96523.55
2018-12-05T15:46:44.189Z,96521.12
2018-12-05T15:49:13.963Z,96527.34
2018-12-05T15:51:43.871Z,96515.48
2018-12-05T15:54:13.693Z,96516.88
2018-12-05T15:56:44.274Z,96515.39
2018-12-05T15:59:14.229Z,96517.68
2018-12-05T16:01:45.165Z,96518.24
2018-12-05T16:04:14.946Z,96507.12
2018-12-05T16:06:44.739Z,96508.28
2018-12-05T16:09:15.181Z,96509.27
2018-12-05T16:11:45.438Z,96508.20
2018-12-05T16:14:16.000Z,96499.88
2018-12-05T16:16:45.916Z,96496.70
2018-12-05T16:19:16.067Z,96492.22
2018-12-05T16:21:46.702Z,96490.02
2018-12-05T16:24:16.595Z,96489.56
2018-12-05T16:26:46.727Z,96491.52
2018-12-05T16:29:16.653Z,96488.34
2018-12-05T16:31:46.432Z,96493.06
2018-12-05T16:34:16.359Z,96477.38
2018-12-05T16:36:46.145Z,96473.67
2018-12-05T16:39:15.985Z,96476.75
2018-12-05T16:41:45.846Z,96484.23
2018-12-05T16:44:15.654Z,96477.60
2018-12-05T16:46:45.462Z,96486.38
2018-12-05T16:49:15.297Z,96484.15
2018-12-05T16:51:45.930Z,96488.44
2018-12-05T16:54:17.241Z,96482.54
2018-12-05T16:56:47.326Z,96486.60
2018-12-05T16:59:18.195Z,96493.38
2018-12-05T17:01:48.108Z,96486.69
2018-12-05T17:04:17.934Z,96486.04
2018-12-05T17:06:48.834Z,96479.75
2018-12-05T17:09:25.844Z,96479.60
2018-12-05T17:11:50.931Z,96479.83
2018-12-05T17:14:21.501Z,96482.26
2018-12-05T17:16:51.321Z,96488.05
2018-12-05T17:19:21.701Z,96484.03
2018-12-05T17:21:51.618Z,96477.11
2018-12-05T17:24:21.493Z,96468.92
2018-12-05T17:26:51.520Z,96467.23
2018-12-05T17:29:21.385Z,96465.08
2018-12-05T17:31:51.120Z,96465.27
2018-12-05T17:34:20.934Z,96460.42
2018-12-05T17:36:50.703Z,96458.02
2018-12-05T17:39:20.509Z,96456.28
2018-12-05T17:41:50.306Z,96454.48
2018-12-05T17:44:20.070Z,96454.70
2018-12-05T17:46:49.873Z,96456.06
2018-12-05T17:49:19.634Z,96450.27
2018-12-05T17:51:49.420Z,96448.95
2018-12-05T17:54:19.163Z,96450.05
2018-12-05T17:56:49.007Z,96441.11
2018-12-05T17:59:18.769Z,96449.33
2018-12-05T18:01:48.855Z,96442.81
2018-12-05T18:04:18.713Z,96443.97
2018-12-05T18:06:48.717Z,96440.44
2018-12-05T18:09:18.773Z,96432.45
2018-12-05T18:11:48.826Z,96432.07
2018-12-05T18:14:18.583Z,96421.03
2018-12-05T18:16:48.459Z,96412.63
2018-12-05T18:19:20.627Z,96421.33
2018-12-05T18:21:50.688Z,96422.34
2018-12-05T18:24:20.995Z,96415.80
2018-12-05T18:26:51.531Z,96405.43
2018-12-05T18:29:21.264Z,96403.40
2018-12-05T18:31:51.000Z,96401.89
2018-12-05T18:34:21.088Z,96400.30
2018-12-05T18:36:50.842Z,96397.79
2018-12-05T18:39:20.633Z,96401.42
2018-12-05T18:41:50.458Z,96407.80
2018-12-05T18:44:23.087Z,96411.19
2018-12-05T18:46:52.857Z,96408.03
2018-12-05T18:49:23.074Z,96416.62
2018-12-05T18:51:52.836Z,96405.05
2018-12-05T18:54:22.584Z,96409.45
2018-12-05T18:56:52.877Z,96401.02
2018-12-05T18:59:22.646Z,96401.95
2018-12-05T19:01:53.654Z,96399.02
2018-12-05T19:04:23.511Z,96409.86
2018-12-05T19:06:53.860Z,96416.08
2018-12-05T19:09:27.041Z,96421.45
2018-12-05T19:11:55.775Z,96428.53
2018-12-05T19:14:30.682Z,96447.83
2018-12-05T19:17:00.551Z,96446.47
2018-12-05T19:19:30.349Z,96438.21
2018-12-05T19:22:00.236Z,96446.69
2018-12-05T19:24:30.089Z,96454.67
2018-12-05T19:27:00.002Z,96451.20
2018-12-05T19:29:29.794Z,96442.97
2018-12-05T19:31:59.589Z,96439.98
2018-12-05T19:34:29.403Z,96431.66
2018-12-05T19:36:59.433Z,96436.67
2018-12-05T19:39:29.558Z,96412.14
2018-12-05T19:41:59.449Z,96406.59
2018-12-05T19:44:29.575Z,96399.89
2018-12-05T19:46:59.767Z,96410.55
2018-12-05T19:49:29.909Z,96415.56
2018-12-05T19:52:00.544Z,96415.89
2018-12-05T19:54:30.742Z,96412.10
2018-12-05T19:57:00.498Z,96406.79
2018-12-05T19:59:30.620Z,96412.16
2018-12-05T20:02:00.431Z,96400.01
2018-12-05T20:04:30.573Z,96404.75
2018-12-05T20:07:00.408Z,96403.48
2018-12-05T20:09:30.432Z,96413.45
2018-12-05T20:12:00.521Z,96406.56
2018-12-05T20:14:30.797Z,96397.82
2018-12-05T20:17:00.593Z,96396.91
2018-12-05T20:19:31.314Z,96385.42
2018-12-05T20:22:01.161Z,96383.34
2018-12-05T20:24:31.386Z,96379.67
2018-12-05T20:27:01.161Z,96375.34
2018-12-05T20:29:31.207Z,96373.91
2018-12-05T20:32:01.427Z,96379.17
2018-12-05T20:34:31.285Z,96370.52
2018-12-05T20:37:01.326Z,96380.87
2018-12-05T20:39:31.630Z,96374.05
2018-12-05T20:42:04.068Z,96376.48
2018-12-05T20:44:33.941Z,96386.75
2018-12-05T20:47:04.086Z,96401.06
2018-12-05T20:49:34.171Z,96410.92
2018-12-05T20:52:04.357Z,96414.97
2018-12-05T20:54:34.159Z,96414.59
2018-12-05T20:57:04.241Z,96395.00
2018-12-05T20:59:34.056Z,96379.17
2018-12-05T21:02:04.530Z,96357.56
2018-12-05T21:04:34.337Z,96351.70
2018-12-05T21:07:04.436Z,96346.09
2018-12-05T21:09:34.284Z,96345.78
2018-12-05T21:12:04.845Z,96357.37
2018-12-05T21:14:34.652Z,96342.47
2018-12-05T21:17:04.744Z,96331.70
2018-12-05T21:19:34.576Z,96318.16
2018-12-05T21:22:04.368Z,96323.84
2018-12-05T21:24:34.264Z,96320.34
2018-12-05T21:27:04.386Z,96324.88
2018-12-05T21:29:34.432Z,96331.53
2018-12-05T21:32:05.043Z,96334.95
2018-12-05T21:34:35.164Z,96326.31
2018-12-05T21:37:05.113Z,96333.18
2018-12-05T21:39:34.988Z,96332.59
2018-12-05T21:42:05.677Z,96335.87
2018-12-05T21:44:35.726Z,96350.08
2018-12-05T21:47:05.581Z,96373.87
2018-12-05T21:49:35.612Z,96368.80
2018-12-05T21:52:05.922Z,96355.67
2018-12-05T21:54:35.678Z,96340.22
2018-12-05T21:57:05.995Z,96346.14
2018-12-05T21:59:36.290Z,96335.95
2018-12-05T22:02:06.569Z,96343.44
2018-12-05T22:04:36.344Z,96335.58
2018-12-05T22:07:06.109Z,96346.22
2018-12-05T22:09:35.932Z,96355.96
2018-12-05T22:12:05.756Z,96343.00
2018-12-05T22:14:35.583Z,96353.33
2018-12-05T22:17:05.450Z,96352.74
2018-12-05T22:19:35.314Z,96338.06
2018-12-05T22:22:05.130Z,96340.35
2018-12-05T22:24:35.416Z,96342.64
2018-12-05T22:27:05.301Z,96334.44
2018-12-05T22:29:35.405Z,96330.23
2018-12-05T22:32:05.593Z,96324.59
2018-12-05T22:34:35.792Z,96319.53
2018-12-05T22:37:05.651Z,96324.28
2018-12-05T22:39:35.550Z,96337.47
2018-12-05T22:43:34.768Z,96333.10
2018-12-05T22:46:04.653Z,96326.63
2018-12-05T22:48:35.271Z,96333.67
2018-12-05T22:51:06.265Z,96319.39
2018-12-05T22:53:36.907Z,96322.55
2018-12-05T22:56:06.921Z,96311.08
2018-12-05T22:58:36.740Z,96340.29
2018-12-05T23:01:07.400Z,96287.33
2018-12-05T23:03:37.495Z,96276.19
2018-12-05T23:06:07.256Z,96308.35
2018-12-05T23:08:37.035Z,96344.72
2018-12-05T23:11:06.996Z,96324.09
2018-12-05T23:13:37.561Z,96344.84
2018-12-05T23:16:08.054Z,96345.59
2018-12-05T23:18:37.980Z,96352.15
2018-12-05T23:21:07.773Z,96336.38
2018-12-05T23:23:37.595Z,96342.84
2018-12-05T23:26:07.414Z,96344.31
2018-12-05T23:28:37.178Z,96330.16
2018-12-05T23:31:07.105Z,96323.27
2018-12-05T23:33:37.015Z,96327.97
2018-12-05T23:36:07.232Z,96323.33
2018-12-05T23:38:37.009Z,96307.87
2018-12-05T23:41:06.752Z,96335.23
2018-12-05T23:43:36.515Z,96321.41
2018-12-05T23:46:06.412Z,96295.73
2018-12-05T23:48:36.201Z,96314.91
2018-12-05T23:51:05.957Z,96283.30
2018-12-05T23:53:35.786Z,96289.28
2018-12-05T23:56:06.434Z,96276.15
2018-12-05T23:58:36.340Z,96279.80
